createdAt,value
2019-02-26T00:00:32.773Z,52.76
2019-02-26T00:03:04.755Z,53.53
2019-02-26T00:05:34.845Z,53.38
2019-02-26T00:08:05.305Z,53.22
2019-02-26T00:10:37.260Z,53.52
2019-02-26T00:13:06.406Z,53.32
2019-02-26T00:15:38.108Z,53.78
2019-02-26T00:18:11.346Z,54.17
2019-02-26T00:20:41.320Z,54.71
2019-02-26T00:23:10.886Z,54.86
2019-02-26T00:25:41.526Z,54.79
2019-02-26T00:28:13.069Z,54.82
2019-02-26T00:30:42.817Z,54.58
2019-02-26T00:33:13.743Z,54.68
2019-02-26T00:35:44.281Z,55.32
2019-02-26T00:38:15.992Z,54.83
2019-02-26T00:40:47.339Z,54.42
2019-02-26T00:43:20.819Z,54.16
2019-02-26T00:45:51.058Z,54.33
2019-02-26T00:48:19.881Z,54.21
2019-02-26T00:50:49.579Z,55.12
2019-02-26T00:53:21.744Z,54.16
2019-02-26T00:55:51.633Z,54.42
2019-02-26T00:58:22.566Z,54.73
2019-02-26T01:00:52.549Z,54.48
2019-02-26T01:03:22.168Z,54.34
2019-02-26T01:05:51.860Z,54.96
2019-02-26T01:08:22.311Z,54.72
2019-02-26T01:10:51.943Z,54.90
2019-02-26T01:13:22.409Z,54.78
2019-02-26T01:15:53.369Z,54.34
2019-02-26T01:18:24.590Z,54.34
2019-02-26T01:20:55.326Z,54.28
2019-02-26T01:23:26.857Z,55.09
2019-02-26T01:25:57.428Z,55.36
2019-02-26T01:28:29.197Z,56.00
2019-02-26T01:31:00.279Z,56.06
2019-02-26T01:33:32.055Z,56.11
2019-02-26T01:36:02.660Z,56.28
2019-02-26T01:38:32.425Z,57.08
2019-02-26T01:41:02.610Z,56.32
2019-02-26T01:43:32.559Z,56.61
2019-02-26T01:46:02.412Z,57.18
2019-02-26T01:48:34.357Z,56.63
2019-02-26T01:51:03.884Z,57.22
2019-02-26T01:53:34.049Z,57.62
2019-02-26T01:56:05.096Z,57.88
2019-02-26T01:58:35.045Z,57.58
2019-02-26T02:01:04.759Z,57.87
2019-02-26T02:03:34.396Z,57.59
2019-02-26T02:06:06.099Z,57.67
2019-02-26T02:08:39.301Z,57.57
2019-02-26T02:11:09.231Z,57.29
2019-02-26T02:13:41.376Z,57.91
2019-02-26T02:16:10.257Z,57.58
2019-02-26T02:18:43.644Z,58.06
2019-02-26T02:21:11.595Z,58.42
2019-02-26T02:23:42.102Z,58.81
2019-02-26T02:26:13.910Z,59.07
2019-02-26T02:28:44.312Z,58.61
2019-02-26T02:31:13.949Z,57.78
2019-02-26T02:33:43.588Z,58.28
2019-02-26T02:36:15.103Z,57.83
2019-02-26T02:38:47.342Z,57.17
2019-02-26T02:41:17.410Z,57.53
2019-02-26T02:43:47.031Z,57.58
2019-02-26T02:46:16.679Z,57.49
2019-02-26T02:48:46.629Z,56.87
2019-02-26T02:51:16.527Z,56.27
2019-02-26T02:53:47.865Z,55.79
2019-02-26T02:56:18.419Z,56.29
2019-02-26T02:58:51.051Z,55.55
2019-02-26T03:01:22.384Z,54.98
2019-02-26T03:03:53.807Z,54.93
2019-02-26T03:06:27.296Z,55.10
2019-02-26T03:08:56.224Z,55.10
2019-02-26T03:11:26.288Z,56.03
2019-02-26T03:13:56.035Z,55.39
2019-02-26T03:16:27.154Z,55.29
2019-02-26T03:18:57.336Z,55.80
2019-02-26T03:21:27.758Z,55.77
2019-02-26T03:24:00.878Z,56.07
2019-02-26T03:26:30.279Z,56.13
2019-02-26T03:28:59.963Z,56.16
2019-02-26T03:31:34.616Z,55.56
2019-02-26T03:34:08.810Z,55.70
2019-02-26T03:36:34.231Z,55.87
2019-02-26T03:39:05.692Z,55.74
2019-02-26T03:41:37.159Z,56.06
2019-02-26T03:44:08.771Z,55.90
2019-02-26T03:46:38.501Z,55.54
2019-02-26T03:49:08.721Z,56.41
2019-02-26T03:51:39.660Z,56.61
2019-02-26T03:54:10.805Z,56.73
2019-02-26T03:56:41.646Z,56.68
2019-02-26T03:59:11.868Z,56.71
2019-02-26T04:01:41.885Z,56.61
2019-02-26T04:04:12.033Z,56.66
2019-02-26T04:06:44.089Z,56.61
2019-02-26T04:09:15.979Z,56.82
2019-02-26T04:11:47.761Z,56.21
2019-02-26T04:14:18.060Z,56.46
2019-02-26T04:16:48.592Z,56.60
2019-02-26T04:19:19.532Z,57.41
2019-02-26T04:22:30.180Z,57.07
2019-02-26T04:25:12.405Z,57.49
2019-02-26T04:28:10.821Z,57.39
2019-02-26T04:31:06.799Z,57.27
2019-02-26T04:34:08.745Z,57.29
2019-02-26T04:37:04.746Z,58.29
2019-02-26T04:39:54.111Z,57.67
2019-02-26T04:43:04.688Z,58.74
2019-02-26T04:46:13.647Z,59.32
2019-02-26T04:48:44.396Z,59.26
2019-02-26T04:51:14.152Z,58.86
2019-02-26T04:53:44.115Z,57.96
2019-02-26T04:56:15.080Z,58.24
2019-02-26T04:58:47.525Z,58.78
2019-02-26T05:01:19.136Z,58.69
2019-02-26T05:03:49.481Z,58.96
2019-02-26T05:06:19.105Z,59.19
2019-02-26T05:08:48.841Z,59.52
2019-02-26T05:11:31.198Z,59.21
2019-02-26T05:13:50.121Z,59.60
2019-02-26T05:16:19.981Z,59.48
2019-02-26T05:18:51.640Z,59.60
2019-02-26T05:21:21.137Z,59.96
2019-02-26T05:23:52.406Z,60.15
2019-02-26T05:26:23.326Z,60.18
2019-02-26T05:28:52.947Z,60.44
2019-02-26T05:31:22.915Z,60.43
2019-02-26T05:33:55.375Z,60.87
2019-02-26T05:36:24.632Z,61.23
2019-02-26T05:38:56.986Z,61.54
2019-02-26T05:41:26.284Z,60.73
2019-02-26T05:43:58.381Z,60.58
2019-02-26T05:46:29.524Z,60.69
2019-02-26T05:48:59.325Z,60.32
2019-02-26T05:51:31.987Z,60.06
2019-02-26T05:54:02.103Z,59.74
2019-02-26T05:56:33.955Z,60.31
2019-02-26T05:59:06.839Z,61.29
2019-02-26T06:01:35.092Z,61.28
2019-02-26T06:04:07.679Z,60.67
2019-02-26T06:06:36.684Z,60.98
2019-02-26T06:09:07.779Z,61.28
2019-02-26T06:11:39.981Z,61.46
2019-02-26T06:14:12.481Z,61.42
2019-02-26T06:16:43.202Z,61.25
2019-02-26T06:19:15.797Z,61.87
2019-02-26T06:21:47.406Z,61.89
2019-02-26T06:24:20.259Z,61.89
2019-02-26T06:26:48.876Z,61.93
2019-02-26T06:29:22.281Z,61.51
2019-02-26T06:31:50.488Z,61.41
2019-02-26T06:34:21.410Z,59.92
2019-02-26T06:36:53.240Z,59.70
2019-02-26T06:39:24.578Z,59.39
2019-02-26T06:41:54.896Z,58.90
2019-02-26T06:44:24.533Z,59.20
2019-02-26T06:46:54.438Z,58.55
2019-02-26T06:49:25.136Z,58.73
2019-02-26T06:51:56.072Z,57.93
2019-02-26T06:54:27.122Z,57.94
2019-02-26T06:56:58.057Z,58.24
2019-02-26T06:59:32.495Z,58.30
2019-02-26T07:02:02.249Z,58.82
2019-02-26T07:04:31.865Z,58.39
2019-02-26T07:07:02.414Z,58.15
2019-02-26T07:09:34.596Z,57.56
2019-02-26T07:12:05.071Z,58.48
2019-02-26T07:14:34.878Z,58.34
2019-02-26T07:17:04.746Z,58.61
2019-02-26T07:19:35.860Z,57.93
2019-02-26T07:22:08.346Z,57.29
2019-02-26T07:24:38.578Z,56.51
2019-02-26T07:27:11.276Z,56.77
2019-02-26T07:29:42.522Z,56.94
2019-02-26T07:32:14.217Z,56.08
2019-02-26T07:34:45.278Z,56.09
2019-02-26T07:37:15.794Z,56.31
2019-02-26T07:39:47.215Z,54.71
2019-02-26T07:42:18.782Z,54.40
2019-02-26T07:44:48.490Z,54.56
2019-02-26T07:47:18.701Z,54.52
2019-02-26T07:49:48.631Z,54.87
2019-02-26T07:52:18.291Z,54.41
2019-02-26T07:54:49.498Z,53.38
2019-02-26T07:57:20.721Z,53.42
2019-02-26T07:59:51.551Z,52.48
2019-02-26T08:02:21.544Z,52.31
2019-02-26T08:04:51.518Z,52.37
2019-02-26T08:07:23.427Z,51.78
2019-02-26T08:09:53.091Z,51.42
2019-02-26T08:12:23.001Z,51.03
2019-02-26T08:14:52.932Z,50.83
2019-02-26T08:17:22.877Z,49.99
2019-02-26T08:19:52.625Z,49.97
2019-02-26T08:22:22.291Z,49.47
2019-02-26T08:24:55.026Z,49.35
2019-02-26T08:27:26.300Z,49.32
2019-02-26T08:29:58.593Z,48.70
2019-02-26T08:32:30.370Z,48.69
2019-02-26T08:35:00.603Z,48.52
2019-02-26T08:37:31.032Z,48.27
2019-02-26T08:40:01.059Z,47.70
2019-02-26T08:42:31.094Z,47.62
2019-02-26T08:45:00.756Z,47.44
2019-02-26T08:47:32.226Z,46.24
2019-02-26T08:50:06.490Z,46.23
2019-02-26T08:52:33.385Z,45.30
2019-02-26T08:55:03.189Z,44.39
2019-02-26T08:57:32.882Z,43.74
2019-02-26T09:00:02.621Z,42.94
2019-02-26T09:02:32.539Z,42.59
2019-02-26T09:05:04.450Z,42.12
2019-02-26T09:07:35.425Z,42.08
2019-02-26T09:10:07.150Z,41.69
2019-02-26T09:12:38.600Z,40.87
2019-02-26T09:15:11.055Z,40.44
2019-02-26T09:17:42.122Z,40.51
2019-02-26T09:20:14.700Z,40.74
2019-02-26T09:22:48.063Z,40.31
2019-02-26T09:25:17.233Z,40.63
2019-02-26T09:27:47.270Z,40.80
2019-02-26T09:30:17.314Z,40.94
2019-02-26T09:32:47.727Z,40.54
2019-02-26T09:35:22.757Z,40.87
2019-02-26T09:37:52.601Z,40.85
2019-02-26T09:40:23.466Z,40.63
2019-02-26T09:42:55.105Z,41.02
2019-02-26T09:45:26.898Z,40.54
2019-02-26T09:47:58.019Z,40.12
2019-02-26T09:50:27.817Z,40.78
2019-02-26T09:52:59.064Z,40.40
2019-02-26T09:55:29.648Z,40.47
2019-02-26T09:57:59.563Z,39.96
2019-02-26T10:00:29.782Z,39.52
2019-02-26T10:02:59.721Z,39.69
2019-02-26T10:05:29.467Z,39.40
2019-02-26T10:08:02.026Z,39.08
2019-02-26T10:10:33.183Z,38.53
2019-02-26T10:13:04.707Z,38.29
2019-02-26T10:15:35.502Z,37.87
2019-02-26T10:18:07.205Z,38.16
2019-02-26T10:20:37.455Z,37.83
2019-02-26T10:23:07.272Z,37.78
2019-02-26T10:25:38.842Z,37.40
2019-02-26T10:28:11.423Z,36.55
2019-02-26T10:30:41.731Z,36.48
2019-02-26T10:33:17.419Z,35.22
2019-02-26T10:35:47.407Z,35.61
2019-02-26T10:38:16.383Z,35.37
2019-02-26T10:40:53.798Z,35.65
2019-02-26T10:43:17.863Z,36.97
2019-02-26T10:45:50.032Z,37.70
2019-02-26T10:48:22.054Z,37.33
2019-02-26T10:50:54.403Z,36.91
2019-02-26T10:53:31.716Z,36.33
2019-02-26T10:56:02.616Z,35.15
2019-02-26T10:58:32.595Z,35.25
2019-02-26T11:01:05.216Z,34.32
2019-02-26T11:03:37.970Z,33.34
2019-02-26T11:06:07.338Z,33.70
2019-02-26T11:08:37.581Z,33.19
2019-02-26T11:11:09.845Z,32.79
2019-02-26T11:13:40.671Z,33.08
2019-02-26T11:16:11.232Z,32.80
2019-02-26T11:18:42.635Z,32.35
2019-02-26T11:21:15.845Z,32.04
2019-02-26T11:23:46.414Z,30.81
2019-02-26T11:26:18.699Z,29.99
2019-02-26T11:28:48.468Z,31.05
2019-02-26T11:31:20.551Z,31.75
2019-02-26T11:33:50.407Z,30.89
2019-02-26T11:36:20.305Z,31.40
2019-02-26T11:38:50.189Z,32.04
2019-02-26T11:41:20.190Z,31.48
2019-02-26T11:43:50.204Z,31.45
2019-02-26T11:46:22.533Z,30.75
2019-02-26T11:48:52.556Z,30.51
2019-02-26T11:51:23.527Z,30.36
2019-02-26T11:53:54.076Z,29.83
2019-02-26T11:56:25.678Z,29.32
2019-02-26T11:58:56.149Z,27.93
2019-02-26T12:01:27.051Z,28.24
2019-02-26T12:04:02.531Z,27.44
2019-02-26T12:06:30.041Z,27.05
2019-02-26T12:09:00.356Z,26.86
2019-02-26T12:11:32.623Z,26.38
2019-02-26T12:14:03.380Z,26.66
2019-02-26T12:16:34.655Z,28.29
2019-02-26T12:19:06.116Z,28.12
2019-02-26T12:21:37.120Z,27.26
2019-02-26T12:24:09.308Z,27.56
2019-02-26T12:26:38.928Z,27.54
2019-02-26T12:29:08.848Z,27.03
2019-02-26T12:31:39.110Z,27.34
2019-02-26T12:34:14.715Z,27.86
2019-02-26T12:36:44.057Z,28.70
2019-02-26T12:39:16.162Z,29.42
2019-02-26T12:41:47.984Z,27.76
2019-02-26T12:44:17.346Z,27.39
2019-02-26T12:46:47.830Z,25.11
2019-02-26T12:49:22.371Z,24.87
2019-02-26T12:51:53.956Z,25.17
2019-02-26T12:54:24.244Z,24.51
2019-02-26T12:56:54.981Z,25.20
2019-02-26T12:59:26.074Z,25.85
2019-02-26T13:01:56.297Z,25.87
2019-02-26T13:04:26.204Z,25.85
2019-02-26T13:06:56.113Z,26.41
2019-02-26T13:09:26.872Z,27.67
2019-02-26T13:12:02.516Z,28.12
2019-02-26T13:14:29.203Z,28.32
2019-02-26T13:17:00.039Z,29.20
2019-02-26T13:19:33.258Z,29.96
2019-02-26T13:22:06.778Z,29.54
2019-02-26T13:24:33.387Z,29.86
2019-02-26T13:27:03.092Z,29.44
2019-02-26T13:29:33.229Z,29.14
2019-02-26T13:32:03.345Z,28.81
2019-02-26T13:34:32.973Z,28.43
2019-02-26T13:37:03.280Z,27.37
2019-02-26T13:39:38.657Z,27.37
2019-02-26T13:42:10.051Z,27.94
2019-02-26T13:44:36.295Z,27.61
2019-02-26T13:47:06.007Z,28.52
2019-02-26T13:49:36.146Z,28.51
2019-02-26T13:52:06.781Z,28.86
2019-02-26T13:54:46.770Z,28.03
2019-02-26T13:57:16.472Z,27.40
2019-02-26T13:59:46.425Z,28.30
2019-02-26T14:02:17.634Z,28.54
2019-02-26T14:04:47.724Z,29.18
2019-02-26T14:07:17.779Z,29.28
2019-02-26T14:09:47.812Z,28.92
2019-02-26T14:12:17.826Z,28.72
2019-02-26T14:14:47.485Z,29.67
2019-02-26T14:17:17.882Z,28.05
2019-02-26T14:19:48.391Z,28.10
2019-02-26T14:22:18.651Z,28.09
2019-02-26T14:24:48.280Z,28.52
2019-02-26T14:27:18.274Z,28.83
2019-02-26T14:29:47.887Z,28.27
2019-02-26T14:32:18.291Z,28.07
2019-02-26T14:34:48.482Z,28.72
2019-02-26T14:37:18.209Z,28.75
2019-02-26T14:39:48.074Z,28.49
2019-02-26T14:42:17.947Z,27.34
2019-02-26T14:44:48.172Z,26.23
2019-02-26T14:47:18.064Z,26.46
2019-02-26T14:49:48.140Z,27.41
2019-02-26T14:52:18.130Z,27.49
2019-02-26T14:54:48.171Z,27.83
2019-02-26T14:57:18.053Z,27.42
2019-02-26T14:59:47.969Z,27.39
2019-02-26T15:02:17.744Z,27.68
2019-02-26T15:04:47.529Z,28.16
2019-02-26T15:07:17.413Z,28.47
2019-02-26T15:09:47.040Z,28.23
2019-02-26T15:12:17.658Z,28.39
2019-02-26T15:14:49.027Z,28.27
2019-02-26T15:17:18.649Z,28.14
2019-02-26T15:19:51.406Z,27.04
2019-02-26T15:22:20.709Z,27.47
2019-02-26T15:24:50.360Z,27.32
2019-02-26T15:27:20.333Z,27.32
2019-02-26T15:29:50.483Z,27.44
2019-02-26T15:32:20.597Z,27.33
2019-02-26T15:34:50.632Z,26.51
2019-02-26T15:37:20.695Z,26.24
2019-02-26T15:39:51.327Z,26.26
2019-02-26T15:42:21.864Z,26.38
2019-02-26T15:44:51.875Z,25.71
2019-02-26T15:47:21.784Z,25.01
2019-02-26T15:49:51.382Z,25.43
2019-02-26T15:52:22.215Z,25.59
2019-02-26T15:54:52.371Z,25.59
2019-02-26T15:57:22.392Z,25.79
2019-02-26T15:59:52.902Z,25.61
2019-02-26T16:02:28.532Z,25.70
2019-02-26T16:04:57.545Z,25.81
2019-02-26T16:07:27.872Z,26.08
2019-02-26T16:09:57.517Z,26.39
2019-02-26T16:12:27.202Z,26.77
2019-02-26T16:14:57.478Z,26.81
2019-02-26T16:17:27.386Z,27.04
2019-02-26T16:19:57.315Z,27.20
2019-02-26T16:22:27.246Z,27.12
2019-02-26T16:24:56.897Z,27.59
2019-02-26T16:27:27.810Z,27.60
2019-02-26T16:29:57.809Z,27.83
2019-02-26T16:32:28.041Z,27.74
2019-02-26T16:34:57.766Z,27.99
2019-02-26T16:37:27.828Z,27.83
2019-02-26T16:40:02.739Z,27.71
2019-02-26T16:42:32.489Z,28.17
2019-02-26T16:45:02.170Z,28.25
2019-02-26T16:47:33.934Z,28.54
2019-02-26T16:50:12.915Z,28.91
2019-02-26T16:52:37.221Z,28.77
2019-02-26T16:55:07.747Z,29.09
2019-02-26T16:57:37.681Z,29.40
2019-02-26T17:00:08.994Z,29.91
2019-02-26T17:02:39.187Z,30.18
2019-02-26T17:05:09.623Z,30.52
2019-02-26T17:07:40.969Z,30.45
2019-02-26T17:10:12.086Z,31.10
2019-02-26T17:12:42.427Z,30.83
2019-02-26T17:15:17.393Z,30.93
2019-02-26T17:17:47.192Z,31.98
2019-02-26T17:20:19.643Z,33.13
2019-02-26T17:22:48.571Z,32.66
2019-02-26T17:25:18.617Z,33.45
2019-02-26T17:27:48.286Z,33.49
2019-02-26T17:30:18.266Z,35.41
2019-02-26T17:32:49.577Z,35.27
2019-02-26T17:35:19.813Z,34.26
2019-02-26T17:37:49.488Z,34.07
2019-02-26T17:40:19.448Z,34.50
2019-02-26T17:42:51.233Z,34.93
2019-02-26T17:45:20.914Z,35.22
2019-02-26T17:47:50.747Z,34.82
2019-02-26T17:50:31.940Z,35.01
2019-02-26T17:53:01.935Z,36.36
2019-02-26T17:55:31.647Z,35.75
2019-02-26T17:58:01.768Z,36.40
2019-02-26T18:00:38.081Z,35.57
2019-02-26T18:03:11.099Z,36.19
2019-02-26T18:05:50.889Z,36.34
2019-02-26T18:08:14.367Z,36.75
2019-02-26T18:10:44.277Z,36.26
2019-02-26T18:13:14.296Z,37.82
2019-02-26T18:15:44.167Z,36.70
2019-02-26T18:18:13.952Z,36.80
2019-02-26T18:20:43.898Z,36.92
2019-02-26T18:23:13.944Z,36.95
2019-02-26T18:25:43.680Z,37.51
2019-02-26T18:28:15.370Z,38.20
2019-02-26T18:30:49.216Z,38.11
2019-02-26T18:33:20.102Z,38.02
2019-02-26T18:35:49.804Z,38.02
2019-02-26T18:38:19.709Z,37.96
2019-02-26T18:40:49.771Z,38.24
2019-02-26T18:43:19.855Z,38.76
2019-02-26T18:45:49.861Z,38.26
2019-02-26T18:48:19.634Z,38.74
2019-02-26T18:50:49.259Z,39.29
2019-02-26T18:53:19.155Z,38.80
2019-02-26T18:55:48.910Z,38.87
2019-02-26T18:58:19.188Z,39.75
2019-02-26T19:00:48.844Z,39.71
2019-02-26T19:03:19.242Z,39.77
2019-02-26T19:05:49.161Z,38.93
2019-02-26T19:08:19.542Z,39.49
2019-02-26T19:10:50.887Z,39.73
2019-02-26T19:13:21.766Z,39.76
2019-02-26T19:15:52.006Z,40.41
2019-02-26T19:18:21.720Z,39.87
2019-02-26T19:20:51.959Z,40.99
2019-02-26T19:23:22.266Z,40.16
2019-02-26T19:25:52.186Z,40.80
2019-02-26T19:28:25.803Z,40.60
2019-02-26T19:30:54.140Z,41.99
2019-02-26T19:33:24.230Z,40.97
2019-02-26T19:35:56.611Z,40.80
2019-02-26T19:38:28.203Z,41.43
2019-02-26T19:40:59.547Z,41.25
2019-02-26T19:43:29.563Z,41.73
2019-02-26T19:45:59.331Z,41.92
2019-02-26T19:48:30.926Z,42.16
2019-02-26T19:51:00.953Z,42.48
2019-02-26T19:53:34.467Z,42.92
2019-02-26T19:56:02.169Z,42.30
2019-02-26T19:58:33.257Z,42.29
2019-02-26T20:01:04.933Z,42.07
2019-02-26T20:03:39.953Z,43.01
2019-02-26T20:06:08.370Z,42.01
2019-02-26T20:08:38.056Z,42.86
2019-02-26T20:11:08.315Z,43.10
2019-02-26T20:13:42.020Z,43.29
2019-02-26T20:16:09.435Z,43.57
2019-02-26T20:18:40.952Z,43.30
2019-02-26T20:21:12.189Z,43.15
2019-02-26T20:23:42.511Z,43.74
2019-02-26T20:26:16.193Z,44.23
2019-02-26T20:28:48.659Z,43.32
2019-02-26T20:31:21.480Z,43.23
2019-02-26T20:33:50.369Z,44.30
2019-02-26T20:36:20.422Z,43.84
2019-02-26T20:38:51.409Z,43.62
2019-02-26T20:41:22.210Z,43.62
2019-02-26T20:43:52.556Z,43.78
2019-02-26T20:46:24.937Z,43.38
2019-02-26T20:48:54.190Z,43.63
2019-02-26T20:51:26.922Z,43.72
2019-02-26T20:53:55.885Z,44.44
2019-02-26T20:56:26.067Z,44.13
2019-02-26T20:58:56.000Z,44.46
2019-02-26T21:01:25.679Z,44.46
2019-02-26T21:03:55.584Z,44.63
2019-02-26T21:06:25.341Z,45.41
2019-02-26T21:08:54.999Z,45.78
2019-02-26T21:11:24.759Z,46.21
2019-02-26T21:13:54.364Z,45.04
2019-02-26T21:16:23.958Z,44.87
2019-02-26T21:18:53.988Z,45.40
2019-02-26T21:21:23.683Z,46.30
2019-02-26T21:23:53.585Z,46.50
2019-02-26T21:26:23.698Z,46.03
2019-02-26T21:28:53.320Z,46.07
2019-02-26T21:31:23.004Z,46.19
2019-02-26T21:33:52.604Z,46.52
2019-02-26T21:36:22.688Z,46.06
2019-02-26T21:38:52.847Z,46.27
2019-02-26T21:41:23.544Z,46.28
2019-02-26T21:43:54.968Z,45.84
2019-02-26T21:46:24.717Z,45.37
2019-02-26T21:48:54.895Z,45.71
2019-02-26T21:51:25.153Z,45.25
2019-02-26T21:53:55.146Z,46.08
2019-02-26T21:56:25.089Z,46.43
2019-02-26T21:58:56.933Z,46.97
2019-02-26T22:01:27.451Z,45.53
2019-02-26T22:03:58.468Z,45.38
2019-02-26T22:06:28.757Z,46.12
2019-02-26T22:08:58.625Z,45.33
2019-02-26T22:11:31.048Z,45.76
2019-02-26T22:14:02.834Z,44.94
2019-02-26T22:16:33.912Z,44.31
2019-02-26T22:19:04.702Z,44.88
2019-02-26T22:21:35.985Z,45.56
2019-02-26T22:24:07.063Z,45.67
2019-02-26T22:26:37.817Z,46.43
2019-02-26T22:29:07.985Z,47.52
2019-02-26T22:31:37.937Z,47.50
2019-02-26T22:34:08.925Z,47.48
2019-02-26T22:36:39.668Z,47.95
2019-02-26T22:39:12.957Z,48.90
2019-02-26T22:41:42.589Z,48.93
2019-02-26T22:44:12.720Z,49.49
2019-02-26T22:46:44.260Z,49.33
2019-02-26T22:49:14.451Z,49.26
2019-02-26T22:51:44.627Z,48.09
2019-02-26T22:54:14.592Z,47.08
2019-02-26T22:56:44.263Z,46.83
2019-02-26T22:59:14.409Z,47.96
2019-02-26T23:01:48.213Z,47.96
2019-02-26T23:04:19.784Z,48.76
2019-02-26T23:06:50.125Z,49.37
2019-02-26T23:09:24.203Z,49.25
2019-02-26T23:11:54.316Z,49.48
2019-02-26T23:14:24.304Z,49.22
2019-02-26T23:16:54.792Z,49.05
2019-02-26T23:19:24.694Z,48.36
2019-02-26T23:21:54.726Z,48.29
2019-02-26T23:24:27.737Z,48.86
2019-02-26T23:26:56.529Z,49.03
2019-02-26T23:29:27.965Z,48.61
2019-02-26T23:31:58.611Z,48.63
2019-02-26T23:34:30.535Z,47.77
2019-02-26T23:37:01.491Z,47.90
2019-02-26T23:39:31.242Z,46.82
2019-02-26T23:42:05.863Z,46.98
2019-02-26T23:44:33.068Z,49.51
2019-02-26T23:47:02.736Z,48.67
2019-02-26T23:49:33.144Z,48.78
2019-02-26T23:52:02.996Z,49.56
2019-02-26T23:54:32.584Z,50.53
2019-02-26T23:57:02.701Z,50.54
2019-02-26T23:59:34.849Z,49.62
